Terminal Aerodrome Forecast
Issued by NWS Grand Forks, ND

Home | Current Version | Previous Version | Graphics & Text | Print | Product List | Glossary On
Versions: 1 2 3 4 5 6 7 8 9 10 11 12 13 14 15 16
000
FTUS43 KFGF 211720
TAFGFK
TAF
KGFK 211720Z 2118/2218 13005KT P6SM OVC008
      TEMPO 2118/2121 OVC015
     FM212100 12006KT P6SM OVC008
      TEMPO 2121/2124 4SM -DZ BR OVC005
     FM221200 33004KT 2SM -DZ BR OVC003=

USA.gov is the U.S. government's official web portal to all federal, state and local government web resources and services.